createdAt,value
2023-06-19T00:02:23.683Z,6.43
2023-06-19T00:04:52.753Z,5.70
2023-06-19T00:07:23.046Z,5.50
2023-06-19T00:09:50.768Z,5.10
2023-06-19T00:12:18.634Z,5.97
2023-06-19T00:14:47.058Z,6.10
2023-06-19T00:17:17.736Z,6.00
2023-06-19T00:19:45.676Z,5.55
2023-06-19T00:22:14.817Z,5.40
2023-06-19T00:24:42.643Z,5.68
2023-06-19T00:27:10.365Z,9.50
2023-06-19T00:29:38.089Z,5.75
2023-06-19T00:32:06.505Z,5.32
2023-06-19T00:34:34.227Z,5.78
2023-06-19T00:37:02.001Z,5.75
2023-06-19T00:39:31.103Z,5.13
2023-06-19T00:41:58.798Z,5.05
2023-06-19T00:44:26.494Z,6.20
2023-06-19T00:47:00.598Z,5.78
2023-06-19T00:49:30.274Z,5.80
2023-06-19T00:51:57.941Z,5.60
2023-06-19T00:54:25.753Z,5.78
2023-06-19T00:56:55.079Z,5.97
2023-06-19T00:59:23.549Z,5.35
2023-06-19T01:01:51.561Z,5.43
2023-06-19T01:04:19.383Z,5.93
2023-06-19T01:06:53.570Z,5.10
2023-06-19T01:09:22.610Z,8.20
2023-06-19T01:11:54.591Z,5.80
2023-06-19T01:14:24.548Z,5.38
2023-06-19T01:16:53.158Z,5.25
2023-06-19T01:19:22.508Z,4.88
2023-06-19T01:21:51.317Z,4.88
2023-06-19T01:24:20.548Z,5.25
2023-06-19T01:26:48.520Z,5.13
2023-06-19T01:29:19.313Z,5.07
2023-06-19T01:31:51.283Z,4.75
2023-06-19T01:34:21.058Z,5.20
2023-06-19T01:36:50.303Z,5.03
2023-06-19T01:39:18.243Z,5.10
2023-06-19T01:41:48.265Z,4.30
2023-06-19T01:44:16.087Z,5.13
2023-06-19T01:46:43.934Z,4.40
2023-06-19T01:49:11.687Z,3.85
2023-06-19T01:51:39.292Z,4.93
2023-06-19T01:54:08.386Z,3.60
2023-06-19T01:56:36.106Z,3.70
2023-06-19T01:59:05.293Z,4.40
2023-06-19T02:01:33.001Z,4.07
2023-06-19T02:04:00.883Z,3.75
2023-06-19T02:06:28.782Z,3.90
2023-06-19T02:08:56.518Z,4.10
2023-06-19T02:11:24.275Z,4.30
2023-06-19T02:13:51.963Z,4.28
2023-06-19T02:16:21.088Z,3.40
2023-06-19T02:18:48.859Z,3.45
2023-06-19T02:21:16.590Z,3.45
2023-06-19T02:23:44.220Z,3.93
2023-06-19T02:26:12.735Z,3.90
2023-06-19T02:28:40.792Z,3.65
2023-06-19T02:31:08.510Z,5.90
2023-06-19T02:33:37.746Z,4.75
2023-06-19T02:36:06.164Z,5.50
2023-06-19T02:38:33.864Z,4.83
2023-06-19T02:41:02.510Z,4.25
2023-06-19T02:43:30.221Z,4.35
2023-06-19T02:45:57.995Z,4.20
2023-06-19T02:48:25.798Z,5.85
2023-06-19T02:50:54.928Z,4.35
2023-06-19T02:53:22.656Z,4.63
2023-06-19T02:55:50.385Z,3.63
2023-06-19T02:58:18.103Z,3.73
2023-06-19T03:00:46.202Z,3.92
2023-06-19T03:03:14.166Z,3.60
2023-06-19T03:05:41.983Z,4.10
2023-06-19T03:08:11.935Z,4.05
2023-06-19T03:10:39.578Z,3.80
2023-06-19T03:13:07.315Z,4.65
2023-06-19T03:15:35.044Z,3.97
2023-06-19T03:18:05.586Z,3.92
2023-06-19T03:20:33.760Z,4.78
2023-06-19T03:23:01.487Z,4.72
2023-06-19T03:25:35.843Z,4.28
2023-06-19T03:28:04.019Z,5.53
2023-06-19T03:30:32.171Z,4.28
2023-06-19T03:32:59.893Z,3.63
2023-06-19T03:35:27.607Z,3.55
2023-06-19T03:37:55.402Z,3.63
2023-06-19T03:40:23.922Z,3.88
2023-06-19T03:42:53.337Z,3.65
2023-06-19T03:45:21.083Z,4.40
2023-06-19T03:47:48.942Z,3.60
2023-06-19T03:50:31.392Z,4.43
2023-06-19T03:52:59.410Z,6.15
2023-06-19T03:55:27.242Z,3.88
2023-06-19T03:57:56.331Z,3.30
2023-06-19T04:00:24.938Z,4.72
2023-06-19T04:02:52.962Z,3.97
2023-06-19T04:05:21.146Z,3.85
2023-06-19T04:07:49.534Z,4.30
2023-06-19T04:10:17.267Z,3.53
2023-06-19T04:12:46.454Z,3.90
2023-06-19T04:15:15.765Z,3.50
2023-06-19T04:17:43.482Z,5.37
2023-06-19T04:20:21.000Z,3.55
2023-06-19T04:22:48.801Z,2.95
2023-06-19T04:25:16.640Z,3.90
2023-06-19T04:27:45.899Z,3.28
2023-06-19T04:30:15.387Z,3.20
2023-06-19T04:32:43.197Z,3.00
2023-06-19T04:35:11.549Z,2.55
2023-06-19T04:37:39.402Z,2.67
2023-06-19T04:40:09.354Z,4.22
2023-06-19T04:42:39.983Z,3.53
2023-06-19T04:45:09.020Z,2.77
2023-06-19T04:47:51.619Z,2.58
2023-06-19T04:50:21.539Z,3.75
2023-06-19T04:52:51.669Z,2.10
2023-06-19T04:55:20.248Z,2.30
2023-06-19T04:57:47.949Z,4.05
2023-06-19T05:00:20.130Z,2.88
2023-06-19T05:02:49.806Z,2.10
2023-06-19T05:05:18.459Z,3.50
2023-06-19T05:07:47.672Z,2.05
2023-06-19T05:10:15.454Z,2.75
2023-06-19T05:12:43.189Z,4.40
2023-06-19T05:15:12.179Z,2.60
2023-06-19T05:17:40.431Z,3.13
2023-06-19T05:20:12.909Z,2.58
2023-06-19T05:22:40.721Z,2.40
2023-06-19T05:25:09.484Z,2.38
2023-06-19T05:27:37.253Z,4.40
2023-06-19T05:30:06.128Z,2.22
2023-06-19T05:32:33.896Z,2.05
2023-06-19T05:35:02.348Z,2.38
2023-06-19T05:37:31.546Z,2.50
2023-06-19T05:39:59.306Z,2.80
2023-06-19T05:42:26.930Z,4.45
2023-06-19T05:44:54.738Z,2.00
2023-06-19T05:47:24.620Z,1.93
2023-06-19T05:49:52.326Z,1.83
2023-06-19T05:52:20.194Z,2.35
2023-06-19T05:54:49.933Z,3.47
2023-06-19T05:57:21.857Z,2.58
2023-06-19T05:59:49.711Z,4.00
2023-06-19T06:02:17.556Z,2.53
2023-06-19T06:04:45.430Z,2.55
2023-06-19T06:07:13.416Z,2.95
2023-06-19T06:09:41.302Z,3.63
2023-06-19T06:12:10.986Z,2.72
2023-06-19T06:14:38.653Z,3.25
2023-06-19T06:17:07.304Z,2.30
2023-06-19T06:19:35.079Z,3.78
2023-06-19T06:22:02.886Z,3.20
2023-06-19T06:24:30.666Z,2.78
2023-06-19T06:27:00.092Z,3.63
2023-06-19T06:29:29.297Z,2.70
2023-06-19T06:32:05.203Z,2.20
2023-06-19T06:34:33.473Z,2.90
2023-06-19T06:37:06.501Z,4.00
2023-06-19T06:39:34.952Z,2.83
2023-06-19T06:42:03.181Z,4.03
2023-06-19T06:44:32.316Z,3.23
2023-06-19T06:47:00.076Z,4.30
2023-06-19T06:49:27.806Z,3.70
2023-06-19T06:51:57.999Z,3.47
2023-06-19T06:54:26.051Z,4.30
2023-06-19T06:56:57.427Z,3.30
2023-06-19T06:59:25.459Z,3.72
2023-06-19T07:01:54.809Z,5.07
2023-06-19T07:04:22.565Z,4.20
2023-06-19T07:06:50.420Z,3.87
2023-06-19T07:09:18.216Z,3.65
2023-06-19T07:11:45.990Z,3.78
2023-06-19T07:14:13.728Z,3.75
2023-06-19T07:16:41.511Z,3.95
2023-06-19T07:19:10.569Z,4.10
2023-06-19T07:21:39.229Z,4.65
2023-06-19T07:24:07.281Z,3.60
2023-06-19T07:26:35.026Z,3.92
2023-06-19T07:29:02.851Z,5.07
2023-06-19T07:31:30.628Z,4.57
2023-06-19T07:33:58.354Z,4.30
2023-06-19T07:36:27.634Z,4.10
2023-06-19T07:38:55.429Z,4.32
2023-06-19T07:41:23.172Z,5.18
2023-06-19T07:43:51.030Z,4.40
2023-06-19T07:46:18.922Z,4.70
2023-06-19T07:48:46.576Z,5.20
2023-06-19T07:51:14.411Z,5.15
2023-06-19T07:53:44.481Z,5.45
2023-06-19T07:56:12.253Z,4.68
2023-06-19T07:58:40.000Z,5.75
2023-06-19T08:01:07.678Z,4.68
2023-06-19T08:04:10.366Z,6.50
2023-06-19T08:06:38.069Z,5.95
2023-06-19T08:09:06.077Z,4.63
2023-06-19T08:11:34.037Z,5.50
2023-06-19T08:14:01.764Z,5.68
2023-06-19T08:16:29.608Z,5.78
2023-06-19T08:18:57.350Z,5.57
2023-06-19T08:21:26.671Z,6.03
2023-06-19T08:23:54.369Z,5.35
2023-06-19T08:26:22.328Z,5.15
2023-06-19T08:28:50.369Z,5.13
2023-06-19T08:31:18.345Z,6.05
2023-06-19T08:33:46.155Z,6.47
2023-06-19T08:36:14.022Z,5.60
2023-06-19T08:38:43.188Z,5.15
2023-06-19T08:41:10.909Z,6.15
2023-06-19T08:43:38.654Z,5.93
2023-06-19T08:46:11.994Z,5.38
2023-06-19T08:48:40.294Z,5.25
2023-06-19T08:51:07.998Z,5.30
2023-06-19T08:53:37.249Z,5.25
2023-06-19T08:56:06.641Z,5.05
2023-06-19T08:58:35.000Z,5.10
2023-06-19T09:01:02.739Z,5.25
2023-06-19T09:03:30.497Z,5.63
2023-06-19T09:05:58.345Z,4.93
2023-06-19T09:08:26.037Z,5.20
2023-06-19T09:10:58.517Z,5.63
2023-06-19T09:13:29.938Z,6.80
2023-06-19T09:16:03.057Z,6.30
2023-06-19T09:18:31.949Z,7.10
2023-06-19T09:21:00.073Z,6.10
2023-06-19T09:23:27.846Z,7.43
2023-06-19T09:25:56.991Z,6.95
2023-06-19T09:28:25.549Z,7.80
2023-06-19T09:30:55.796Z,7.30
2023-06-19T09:33:23.648Z,6.95
2023-06-19T09:35:52.135Z,8.50
2023-06-19T09:38:20.287Z,5.68
2023-06-19T09:40:49.407Z,5.18
2023-06-19T09:43:21.864Z,5.93
2023-06-19T09:45:51.164Z,5.85
2023-06-19T09:48:22.331Z,5.75
2023-06-19T09:50:52.699Z,6.37
2023-06-19T09:53:21.898Z,5.57
2023-06-19T09:55:51.254Z,5.47
2023-06-19T09:58:20.168Z,6.50
2023-06-19T10:00:50.806Z,4.97
2023-06-19T10:03:20.552Z,4.25
2023-06-19T10:05:48.546Z,5.80
2023-06-19T10:08:19.198Z,5.63
2023-06-19T10:10:50.750Z,5.40
2023-06-19T10:13:18.949Z,5.93
2023-06-19T10:17:22.448Z,11.90
2023-06-19T10:19:54.237Z,6.10
2023-06-19T10:22:22.963Z,5.20
2023-06-19T10:24:53.462Z,5.15
2023-06-19T10:27:23.605Z,6.40
2023-06-19T10:29:59.752Z,6.25
2023-06-19T10:32:44.227Z,6.22
2023-06-19T10:35:13.640Z,6.82
2023-06-19T11:46:50.546Z,7.15
2023-06-19T11:49:19.906Z,7.40
2023-06-19T11:51:48.068Z,7.40
2023-06-19T11:54:16.802Z,8.60
2023-06-19T11:57:56.965Z,8.05
2023-06-19T12:00:24.977Z,7.40
2023-06-19T12:02:54.641Z,7.97
2023-06-19T12:05:22.509Z,7.82
2023-06-19T12:07:50.298Z,7.95
2023-06-19T12:10:18.401Z,8.27
2023-06-19T12:12:46.064Z,7.53
2023-06-19T12:15:15.443Z,7.10
2023-06-19T12:17:43.232Z,6.97
2023-06-19T12:20:12.207Z,7.40
2023-06-19T12:22:39.890Z,6.55
2023-06-19T12:25:08.015Z,6.63
2023-06-19T12:27:35.781Z,7.18
2023-06-19T12:30:03.612Z,8.10
2023-06-19T12:32:32.742Z,7.03
2023-06-19T12:35:00.479Z,6.72
2023-06-19T12:37:29.149Z,5.93
2023-06-19T12:39:57.222Z,5.80
2023-06-19T12:42:24.997Z,6.40
2023-06-19T12:44:52.718Z,7.13
2023-06-19T12:47:21.894Z,6.45
2023-06-19T12:49:51.114Z,6.70
2023-06-19T12:52:19.034Z,5.10
2023-06-19T12:54:46.768Z,5.30
2023-06-19T12:57:14.490Z,5.47
2023-06-19T12:59:42.842Z,5.78
2023-06-19T13:02:12.657Z,6.30
2023-06-19T13:04:41.981Z,6.20
2023-06-19T13:07:11.251Z,6.40
2023-06-19T13:09:38.998Z,5.75
2023-06-19T13:12:07.676Z,5.75
2023-06-19T13:14:35.524Z,6.33
2023-06-19T13:17:03.438Z,7.10
2023-06-19T13:19:31.187Z,6.13
2023-06-19T13:21:58.918Z,6.25
2023-06-19T13:24:28.596Z,6.13
2023-06-19T13:26:56.864Z,5.32
2023-06-19T13:29:24.678Z,6.22
2023-06-19T13:31:52.422Z,5.80
2023-06-19T13:34:20.168Z,6.47
2023-06-19T13:36:48.599Z,5.72
2023-06-19T13:39:16.589Z,6.50
2023-06-19T13:41:45.751Z,6.10
2023-06-19T13:44:13.666Z,5.20
2023-06-19T13:46:41.595Z,5.30
2023-06-19T13:49:09.355Z,4.40
2023-06-19T13:51:37.266Z,5.80
2023-06-19T13:54:05.469Z,7.28
2023-06-19T13:56:33.296Z,7.10
2023-06-19T13:59:04.176Z,6.03
2023-06-19T14:01:31.963Z,6.50
2023-06-19T14:03:59.816Z,6.80
2023-06-19T14:06:27.793Z,4.78
2023-06-19T14:08:59.130Z,5.63
2023-06-19T14:11:27.020Z,4.60
2023-06-19T14:13:54.798Z,4.97
2023-06-19T14:16:24.096Z,4.88
2023-06-19T14:18:51.791Z,4.93
2023-06-19T14:21:19.940Z,6.22
2023-06-19T14:23:47.620Z,6.28
2023-06-19T14:26:15.410Z,5.00
2023-06-19T14:28:43.280Z,4.57
2023-06-19T14:31:11.002Z,5.43
2023-06-19T14:33:40.101Z,4.70
2023-06-19T14:36:07.901Z,4.43
2023-06-19T14:38:35.742Z,4.97
2023-06-19T14:41:03.539Z,4.65
2023-06-19T14:43:33.821Z,4.90
2023-06-19T14:46:02.038Z,4.85
2023-06-19T14:48:31.377Z,4.35
2023-06-19T14:51:00.886Z,4.15
2023-06-19T14:53:28.642Z,5.45
2023-06-19T14:55:56.823Z,4.20
2023-06-19T14:58:28.058Z,4.97
2023-06-19T15:01:01.709Z,21.33
2023-06-19T15:03:29.566Z,8.32
2023-06-19T15:05:57.389Z,3.55
2023-06-19T15:08:26.590Z,4.90
2023-06-19T15:10:54.605Z,4.43
2023-06-19T15:13:22.429Z,3.40
2023-06-19T15:15:51.876Z,4.00
2023-06-19T15:18:19.860Z,4.35
2023-06-19T15:20:47.822Z,3.95
2023-06-19T15:23:15.621Z,5.35
2023-06-19T15:25:44.815Z,5.55
2023-06-19T15:28:12.860Z,6.47
2023-06-19T15:30:40.641Z,4.40
2023-06-19T15:33:08.518Z,4.72
2023-06-19T15:35:36.277Z,5.60
2023-06-19T15:38:04.155Z,5.63
2023-06-19T15:40:32.597Z,4.47
2023-06-19T15:43:01.734Z,4.50
2023-06-19T15:45:29.442Z,8.27
2023-06-19T15:47:57.201Z,5.10
2023-06-19T15:50:25.242Z,4.70
2023-06-19T15:52:53.273Z,5.85
2023-06-19T15:55:21.772Z,4.10
2023-06-19T15:57:49.531Z,6.10
2023-06-19T16:00:19.513Z,6.07
2023-06-19T16:02:49.107Z,4.65
2023-06-19T16:05:17.837Z,4.55
2023-06-19T16:07:46.045Z,4.50
2023-06-19T16:10:13.793Z,4.10
2023-06-19T16:12:42.079Z,6.00
2023-06-19T16:15:13.857Z,4.40
2023-06-19T16:17:43.168Z,5.25
2023-06-19T16:20:12.519Z,4.75
2023-06-19T16:22:40.219Z,4.38
2023-06-19T16:25:10.115Z,4.35
2023-06-19T16:27:37.852Z,6.53
2023-06-19T16:30:06.387Z,4.05
2023-06-19T16:32:34.252Z,4.03
2023-06-19T16:35:03.551Z,4.57
2023-06-19T16:37:31.390Z,4.10
2023-06-19T16:39:59.187Z,4.65
2023-06-19T16:42:27.287Z,4.50
2023-06-19T16:44:55.465Z,4.40
2023-06-19T16:47:23.368Z,5.10
2023-06-19T16:49:51.144Z,4.73
2023-06-19T16:52:20.239Z,5.57
2023-06-19T16:54:47.963Z,4.83
2023-06-19T16:57:15.698Z,4.78
2023-06-19T16:59:43.537Z,6.53
2023-06-19T17:02:11.376Z,5.22
2023-06-19T17:04:39.940Z,4.40
2023-06-19T17:07:07.894Z,3.70
2023-06-19T17:09:36.968Z,4.20
2023-06-19T17:12:05.358Z,4.40
2023-06-19T17:14:33.417Z,4.72
2023-06-19T17:17:01.329Z,3.53
2023-06-19T17:19:29.371Z,5.70
2023-06-19T17:21:57.151Z,4.53
2023-06-19T17:24:24.972Z,4.10
2023-06-19T17:26:58.083Z,3.53
2023-06-19T17:29:26.552Z,3.95
2023-06-19T17:31:54.618Z,5.22
2023-06-19T17:34:22.500Z,4.70
2023-06-19T17:36:50.289Z,4.60
2023-06-19T17:39:18.041Z,5.35
2023-06-19T17:41:45.760Z,5.75
2023-06-19T17:44:14.948Z,7.63
2023-06-19T17:46:42.673Z,7.72
2023-06-19T17:49:10.506Z,8.75
2023-06-19T17:51:38.263Z,8.13
2023-06-19T17:54:06.175Z,7.60
2023-06-19T17:56:34.048Z,7.13
2023-06-19T17:59:01.784Z,7.43
2023-06-19T18:01:30.916Z,7.53
2023-06-19T18:03:58.783Z,9.32
2023-06-19T18:06:26.549Z,7.90
2023-06-19T18:08:54.292Z,7.73
2023-06-19T18:11:21.962Z,7.20
2023-06-19T18:13:49.699Z,7.75
2023-06-19T18:16:17.564Z,7.63
2023-06-19T18:18:46.720Z,7.93
2023-06-19T18:21:14.384Z,8.23
2023-06-19T18:23:42.313Z,7.40
2023-06-19T18:26:09.966Z,8.00
2023-06-19T18:28:37.862Z,7.35
2023-06-19T18:31:05.743Z,7.18
2023-06-19T18:33:33.480Z,8.45
2023-06-19T18:36:03.105Z,6.40
2023-06-19T18:38:30.882Z,9.25
2023-06-19T18:43:26.796Z,7.43
2023-06-19T18:45:54.631Z,7.60
2023-06-19T18:50:41.731Z,7.55
2023-06-19T18:53:09.427Z,7.05
2023-06-19T18:55:39.023Z,7.25
2023-06-19T18:58:08.170Z,7.47
2023-06-19T19:00:36.356Z,7.22
2023-06-19T19:03:04.478Z,8.10
2023-06-19T19:05:33.792Z,7.30
2023-06-19T19:08:02.999Z,7.53
2023-06-19T19:10:30.703Z,7.47
2023-06-19T19:12:58.432Z,7.80
2023-06-19T19:15:26.217Z,6.72
2023-06-19T19:17:53.925Z,7.30
2023-06-19T19:20:22.292Z,7.63
2023-06-19T19:22:50.140Z,7.07
2023-06-19T19:25:19.465Z,7.10
2023-06-19T19:27:47.206Z,6.82
2023-06-19T19:30:15.094Z,9.40
2023-06-19T19:32:42.879Z,6.40
2023-06-19T19:35:11.437Z,8.00
2023-06-19T19:37:39.291Z,6.80
2023-06-19T19:40:08.309Z,6.38
2023-06-19T19:42:37.866Z,9.25
2023-06-19T19:45:06.827Z,6.88
2023-06-19T19:47:34.865Z,7.00
2023-06-19T19:50:02.610Z,7.32
2023-06-19T19:52:31.465Z,7.47
2023-06-19T19:54:59.246Z,7.20
2023-06-19T19:57:27.012Z,8.20
2023-06-19T19:59:56.223Z,9.23
2023-06-19T20:02:24.028Z,8.07
2023-06-19T20:04:53.219Z,11.43
2023-06-19T20:07:20.941Z,7.57
2023-06-19T20:09:48.604Z,7.97
2023-06-19T20:12:22.087Z,6.70
2023-06-19T20:14:50.369Z,7.17
2023-06-19T20:17:19.557Z,9.80
2023-06-19T20:19:47.316Z,6.45
2023-06-19T20:22:15.014Z,7.10
2023-06-19T20:24:43.032Z,8.75
2023-06-19T20:27:12.000Z,9.30
2023-06-19T20:29:39.861Z,7.10
2023-06-19T20:32:08.663Z,11.90
2023-06-19T20:34:37.766Z,8.57
2023-06-19T20:37:05.944Z,6.40
2023-06-19T20:39:33.876Z,6.07
2023-06-19T20:42:03.642Z,6.50
2023-06-19T20:44:31.484Z,6.32
2023-06-19T20:47:01.375Z,6.03
2023-06-19T20:49:29.478Z,6.30
2023-06-19T20:51:58.628Z,6.45
2023-06-19T20:54:26.423Z,6.43
2023-06-19T20:56:54.110Z,7.45
2023-06-19T20:59:21.983Z,7.50
2023-06-19T21:01:49.705Z,8.75
2023-06-19T21:04:17.688Z,7.87
2023-06-19T21:06:45.990Z,6.85
2023-06-19T21:09:16.944Z,7.40
2023-06-19T21:11:44.740Z,8.18
2023-06-19T21:14:12.629Z,6.13
2023-06-19T21:16:40.519Z,5.47
2023-06-19T21:19:08.349Z,6.43
2023-06-19T21:21:36.089Z,7.28
2023-06-19T21:24:04.030Z,6.35
2023-06-19T21:26:33.261Z,5.97
2023-06-19T21:29:00.991Z,5.50
2023-06-19T21:31:29.004Z,5.60
2023-06-19T21:33:57.736Z,6.28
2023-06-19T21:36:25.500Z,6.03
2023-06-19T21:38:53.203Z,4.80
2023-06-19T21:41:20.970Z,6.03
2023-06-19T21:43:50.117Z,6.32
2023-06-19T21:46:17.926Z,8.52
2023-06-19T21:48:45.698Z,4.60
2023-06-19T21:51:13.420Z,4.95
2023-06-19T21:53:41.136Z,5.20
2023-06-19T21:56:08.800Z,6.33
2023-06-19T21:58:36.530Z,4.68
2023-06-19T22:01:05.710Z,6.85
2023-06-19T22:03:33.904Z,5.47
2023-06-19T22:06:01.791Z,4.88
2023-06-19T22:08:41.444Z,4.95
2023-06-19T22:11:10.646Z,5.75
2023-06-19T22:13:38.442Z,7.32
2023-06-19T22:16:09.048Z,6.07
2023-06-19T22:18:37.024Z,5.30
2023-06-19T22:21:04.900Z,6.60
2023-06-19T22:23:33.457Z,5.10
2023-06-19T22:26:01.202Z,5.75
2023-06-19T22:28:28.939Z,6.28
2023-06-19T22:30:56.709Z,5.80
2023-06-19T22:33:25.865Z,5.60
2023-06-19T22:35:53.893Z,4.97
2023-06-19T22:38:22.321Z,4.80
2023-06-19T22:40:50.042Z,6.15
2023-06-19T22:43:17.976Z,5.90
2023-06-19T22:45:45.701Z,6.40
2023-06-19T22:48:13.460Z,5.88
2023-06-19T22:50:42.613Z,5.55
2023-06-19T22:53:11.038Z,5.88
2023-06-19T22:55:38.908Z,7.45
2023-06-19T22:58:06.893Z,4.78
2023-06-19T23:00:35.464Z,4.45
2023-06-19T23:03:03.396Z,6.45
2023-06-19T23:05:31.261Z,5.93
2023-06-19T23:08:00.338Z,5.30
2023-06-19T23:10:28.128Z,6.35
2023-06-19T23:12:55.982Z,4.80
2023-06-19T23:15:24.219Z,4.95
2023-06-19T23:17:54.269Z,4.38
2023-06-19T23:20:22.361Z,5.00
2023-06-19T23:22:50.086Z,4.55
2023-06-19T23:25:19.250Z,6.25
2023-06-19T23:27:46.968Z,5.60
2023-06-19T23:30:15.015Z,5.00
2023-06-19T23:32:42.788Z,6.57
2023-06-19T23:35:10.848Z,5.53
2023-06-19T23:37:38.540Z,5.97
2023-06-19T23:40:08.961Z,5.97
2023-06-19T23:42:38.585Z,5.88
2023-06-19T23:45:06.931Z,4.70
2023-06-19T23:47:34.635Z,6.25
2023-06-19T23:50:02.332Z,5.65
2023-06-19T23:52:43.088Z,5.60
2023-06-19T23:55:11.753Z,4.97
2023-06-19T23:57:40.896Z,4.40
